Strona główna
METAR-TAF:

METAR-TAF

Lotnisko :

Port lotniczy Duszanbe

Duszanbe, Tadżykistan

Szerokość geograficzna: 38-33N, Długość geograficzna: 068-47E, wysokość: 803 m

Aktualna obserwacja pogody

Raport powstał 18 minut temu, godzina 19:30 UTC
Cisza
Temperatura 21°C
Wilgotność 35%
Ciśnienie 1008 hPa
Widzialność 10 km lub więcej

METAR: UTDD 251930Z 00000MPS 9999 NSC 21/05 Q1008 R09/D NOSIG RMK QFE688/0918

czas: 00:48 (19:48 UTC)

Prognoza

Raport powstał 1 godzina i 48 minut temu, godzina 18:00 UTC
Prognoza ważna od 25 godzina 19 UTC do 26 godzina 07 UTC
Wiatr 4 kt z kierunków zmiennych
Widzialność: 6000 m
Mało chmury na wysokości 6600 ft, Cumulonimbus.
Rozproszone chmury na wysokości 13000 ft
Prawdopodobieństwo 40% :
Przejściowo
od 26 godzina 04 UTC do 26 godzina 07 UTC
burza

TAF: UTDD 251800Z 2519/2607 VRB02MPS 6000 FEW066CB SCT130 PROB40 TEMPO 2604/2607 TS

Obserwacja i prognoza pogody dla ponad 4000 lotnisk (raport METAR i TAF).

Dostępne stacje oznaczono żółtymi i czerwonymi punktami na mapie.

Najedź kursorem aby zobaczyć nazwę stacji.

Kliknij aby zobaczyć obserwacje i prognozy pogody.

Aby zmienić mapę: kliknij na zielony przycisk z czarnym krzyżykiem, aby powiększyć; na zielony przycisk z myślnikiem, aby pomniejszyć; na zielone strzałki, aby przejść do map sąsiednich.


METAR-TAF: